createdAt,value
2022-10-04T00:01:47.478Z,1.10
2022-10-04T00:04:20.108Z,1.05
2022-10-04T00:06:59.065Z,0.90
2022-10-04T00:09:37.702Z,1.10
2022-10-04T00:12:06.198Z,1.23
2022-10-04T00:14:38.969Z,1.23
2022-10-04T00:17:12.649Z,1.20
2022-10-04T00:19:41.964Z,1.65
2022-10-04T00:22:12.718Z,1.20
2022-10-04T00:25:08.548Z,1.38
2022-10-04T00:27:37.078Z,1.00
2022-10-04T00:30:03.857Z,1.52
2022-10-04T00:32:42.419Z,1.90
2022-10-04T00:35:27.302Z,1.15
2022-10-04T00:38:15.163Z,1.20
2022-10-04T00:41:14.878Z,1.10
2022-10-04T00:43:47.991Z,1.15
2022-10-04T00:46:23.233Z,1.13
2022-10-04T00:51:22.965Z,1.50
2022-10-04T00:54:01.897Z,1.17
2022-10-04T00:56:56.156Z,1.00
2022-10-04T00:59:38.295Z,1.10
2022-10-04T01:02:14.616Z,1.10
2022-10-04T01:04:44.425Z,1.15
2022-10-04T01:07:15.663Z,1.27
2022-10-04T01:09:57.171Z,1.45
2022-10-04T01:12:36.512Z,1.30
2022-10-04T01:15:09.390Z,1.50
2022-10-04T01:17:36.377Z,1.35
2022-10-04T01:20:32.349Z,1.35
2022-10-04T01:22:59.338Z,1.55
2022-10-04T01:25:48.122Z,1.23
2022-10-04T01:28:15.571Z,1.20
2022-10-04T01:30:43.615Z,1.13
2022-10-04T01:33:12.726Z,1.15
2022-10-04T01:35:40.129Z,1.50
2022-10-04T01:38:07.817Z,1.30
2022-10-04T01:40:39.963Z,1.40
2022-10-04T01:43:10.521Z,1.15
2022-10-04T01:45:50.346Z,1.17
2022-10-04T01:48:26.396Z,1.00
2022-10-04T01:50:53.247Z,1.55
2022-10-04T01:53:28.681Z,1.27
2022-10-04T01:56:05.323Z,1.30
2022-10-04T01:58:41.760Z,1.20
2022-10-04T02:01:26.823Z,1.40
2022-10-04T02:04:32.113Z,1.13
2022-10-04T02:07:01.890Z,1.38
2022-10-04T02:09:34.092Z,1.33
2022-10-04T02:12:01.799Z,1.52
2022-10-04T02:14:35.737Z,1.80
2022-10-04T02:17:10.766Z,1.80
2022-10-04T02:19:42.658Z,1.33
2022-10-04T02:22:11.310Z,1.20
2022-10-04T02:24:48.738Z,1.23
2022-10-04T02:27:16.428Z,1.17
2022-10-04T02:29:43.448Z,1.38
2022-10-04T02:32:31.999Z,3.10
2022-10-04T02:34:59.237Z,1.08
2022-10-04T02:37:28.789Z,1.58
2022-10-04T02:40:05.489Z,1.30
2022-10-04T02:42:41.485Z,1.63
2022-10-04T02:45:33.468Z,1.60
2022-10-04T02:48:27.698Z,1.40
2022-10-04T02:50:57.126Z,1.55
2022-10-04T02:53:45.235Z,1.15
2022-10-04T02:56:13.409Z,1.40
2022-10-04T02:58:41.929Z,1.55
2022-10-04T03:01:24.603Z,1.65
2022-10-04T03:03:52.507Z,1.58
2022-10-04T03:06:20.819Z,2.00
2022-10-04T03:08:47.605Z,1.60
2022-10-04T03:11:16.124Z,1.58
2022-10-04T03:13:47.592Z,1.55
2022-10-04T03:16:15.539Z,1.60
2022-10-04T03:18:44.401Z,1.48
2022-10-04T03:21:16.038Z,1.95
2022-10-04T03:23:43.704Z,1.75
2022-10-04T03:26:31.621Z,1.40
2022-10-04T03:28:59.641Z,2.20
2022-10-04T03:31:28.455Z,1.80
2022-10-04T03:33:57.438Z,1.15
2022-10-04T03:36:26.570Z,1.30
2022-10-04T03:38:56.424Z,1.33
2022-10-04T03:41:26.096Z,1.40
2022-10-04T03:43:55.634Z,1.83
2022-10-04T03:46:25.517Z,1.60
2022-10-04T03:48:55.334Z,1.48
2022-10-04T03:51:24.918Z,1.83
2022-10-04T03:53:55.781Z,1.63
2022-10-04T03:56:28.402Z,2.17
2022-10-04T03:58:56.203Z,2.15
2022-10-04T04:01:38.833Z,3.20
2022-10-04T04:04:17.812Z,2.10
2022-10-04T04:07:03.853Z,1.88
2022-10-04T04:10:00.024Z,1.90
2022-10-04T04:15:02.762Z,2.03
2022-10-04T04:17:36.934Z,1.88
2022-10-04T04:20:11.937Z,2.53
2022-10-04T04:22:41.019Z,1.90
2022-10-04T04:25:14.727Z,1.60
2022-10-04T04:27:44.236Z,1.90
2022-10-04T04:30:17.019Z,1.42
2022-10-04T04:32:52.764Z,1.50
2022-10-04T04:35:32.727Z,1.70
2022-10-04T04:38:05.298Z,1.30
2022-10-04T04:40:32.897Z,1.25
2022-10-04T04:43:03.099Z,1.35
2022-10-04T04:45:32.828Z,1.45
2022-10-04T04:48:01.446Z,1.08
2022-10-04T04:50:35.787Z,1.10
2022-10-04T04:53:14.689Z,1.27
2022-10-04T04:56:02.912Z,1.20
2022-10-04T04:58:36.078Z,1.10
2022-10-04T05:01:18.732Z,1.08
2022-10-04T05:03:59.605Z,1.08
2022-10-04T05:06:28.746Z,1.10
2022-10-04T05:08:55.658Z,1.50
2022-10-04T05:11:29.392Z,1.90
2022-10-04T05:14:12.710Z,1.40
2022-10-04T05:16:44.337Z,1.00
2022-10-04T05:19:21.723Z,1.23
2022-10-04T05:21:50.878Z,0.93
2022-10-04T05:24:20.982Z,1.05
2022-10-04T05:26:57.049Z,1.27
2022-10-04T05:29:28.209Z,1.17
2022-10-04T05:32:24.157Z,0.90
2022-10-04T05:34:51.393Z,0.65
2022-10-04T05:37:53.462Z,1.10
2022-10-04T05:40:26.178Z,1.05
2022-10-04T05:42:55.304Z,0.93
2022-10-04T05:45:26.139Z,0.98
2022-10-04T05:47:55.863Z,1.52
2022-10-04T05:50:41.309Z,1.30
2022-10-04T05:53:27.148Z,1.08
2022-10-04T05:56:30.374Z,0.93
2022-10-04T05:59:21.658Z,1.20
2022-10-04T06:02:44.247Z,1.20
2022-10-04T06:05:20.382Z,1.30
2022-10-04T06:08:26.207Z,1.20
2022-10-04T06:13:33.252Z,1.30
2022-10-04T06:16:20.547Z,1.25
2022-10-04T06:19:09.117Z,0.85
2022-10-04T06:22:14.266Z,1.10
2022-10-04T06:24:45.556Z,1.20
2022-10-04T06:27:22.482Z,0.65
2022-10-04T06:30:13.987Z,1.00
2022-10-04T06:33:08.081Z,0.90
2022-10-04T06:35:41.029Z,3.53
2022-10-04T06:38:47.169Z,1.02
2022-10-04T06:41:35.365Z,0.57
2022-10-04T06:44:27.543Z,0.70
2022-10-04T06:47:39.077Z,0.95
2022-10-04T06:50:19.791Z,0.90
2022-10-04T06:52:55.710Z,0.95
2022-10-04T06:55:46.416Z,0.75
2022-10-04T06:58:13.242Z,0.50
2022-10-04T07:00:52.371Z,0.80
2022-10-04T07:03:51.434Z,0.55
2022-10-04T07:06:27.842Z,0.93
2022-10-04T07:09:02.439Z,0.52
2022-10-04T07:11:37.805Z,0.80
2022-10-04T07:14:16.235Z,0.35
2022-10-04T07:17:22.399Z,0.57
2022-10-04T07:19:52.245Z,0.43
2022-10-04T07:22:47.677Z,0.50
2022-10-04T07:25:30.741Z,0.30
2022-10-04T07:28:29.237Z,0.45
2022-10-04T07:31:03.831Z,0.70
2022-10-04T07:33:35.748Z,0.60
2022-10-04T07:36:24.346Z,0.40
2022-10-04T07:39:00.305Z,0.73
2022-10-04T07:41:34.028Z,0.50
2022-10-04T07:44:16.188Z,0.43
2022-10-04T07:46:43.054Z,0.75
2022-10-04T07:49:20.894Z,0.47
2022-10-04T07:52:26.697Z,1.13
2022-10-04T07:55:08.560Z,0.38
2022-10-04T07:58:14.296Z,0.50
2022-10-04T08:00:49.633Z,0.75
2022-10-04T08:03:56.645Z,0.90
2022-10-04T08:06:40.070Z,0.70
2022-10-04T08:09:29.942Z,0.60
2022-10-04T08:12:02.886Z,0.82
2022-10-04T08:14:36.340Z,0.50
2022-10-04T08:17:21.835Z,0.63
2022-10-04T08:19:48.743Z,0.60
2022-10-04T08:22:23.996Z,0.68
2022-10-04T08:25:09.694Z,0.50
2022-10-04T08:28:19.559Z,0.65
2022-10-04T08:31:15.997Z,0.57
2022-10-04T08:34:16.612Z,0.60
2022-10-04T08:37:20.845Z,0.68
2022-10-04T08:40:18.559Z,0.40
2022-10-04T08:42:57.376Z,0.70
2022-10-04T08:46:06.253Z,0.40
2022-10-04T08:49:18.101Z,0.50
2022-10-04T08:52:20.036Z,0.30
2022-10-04T08:55:20.207Z,0.30
2022-10-04T08:58:25.726Z,0.38
2022-10-04T09:00:55.954Z,0.40
2022-10-04T09:03:36.897Z,0.55
2022-10-04T09:06:32.038Z,0.50
2022-10-04T09:12:05.838Z,0.40
2022-10-04T09:14:48.596Z,0.50
2022-10-04T09:17:23.088Z,0.50
2022-10-04T09:22:46.873Z,0.43
2022-10-04T09:25:24.873Z,0.30
2022-10-04T09:28:21.185Z,0.68
2022-10-04T09:31:13.133Z,0.75
2022-10-04T09:33:53.050Z,0.40
2022-10-04T09:36:41.621Z,0.50
2022-10-04T09:39:29.051Z,0.40
2022-10-04T09:42:25.926Z,0.52
2022-10-04T09:45:10.976Z,0.57
2022-10-04T09:47:46.067Z,0.38
2022-10-04T09:50:37.365Z,0.40
2022-10-04T09:53:26.182Z,1.42
2022-10-04T09:56:05.201Z,0.60
2022-10-04T09:58:53.396Z,0.50
2022-10-04T10:01:29.658Z,0.57
2022-10-04T10:04:28.516Z,0.60
2022-10-04T10:07:13.990Z,0.40
2022-10-04T10:10:02.205Z,0.50
2022-10-04T10:13:21.535Z,0.30
2022-10-04T10:16:30.378Z,0.45
2022-10-04T10:19:06.155Z,0.80
2022-10-04T10:22:02.266Z,0.57
2022-10-04T10:25:05.526Z,1.15
2022-10-04T10:27:41.694Z,0.90
2022-10-04T10:30:25.810Z,0.60
2022-10-04T10:33:31.355Z,0.35
2022-10-04T10:36:10.608Z,0.75
2022-10-04T10:38:53.522Z,1.00
2022-10-04T10:41:35.844Z,1.00
2022-10-04T10:44:20.634Z,0.80
2022-10-04T10:46:59.439Z,0.65
2022-10-04T10:49:48.419Z,0.95
2022-10-04T10:52:46.289Z,1.33
2022-10-04T10:56:16.871Z,0.80
2022-10-04T10:58:58.642Z,0.70
2022-10-04T11:02:05.891Z,1.17
2022-10-04T11:05:04.237Z,1.35
2022-10-04T11:07:53.544Z,0.82
2022-10-04T11:10:55.318Z,0.85
2022-10-04T11:13:42.474Z,1.05
2022-10-04T11:16:19.702Z,0.70
2022-10-04T11:19:29.435Z,0.80
2022-10-04T11:22:17.314Z,0.40
2022-10-04T11:25:18.321Z,0.50
2022-10-04T11:28:24.374Z,0.60
2022-10-04T11:34:00.130Z,0.40
2022-10-04T11:36:56.491Z,0.60
2022-10-04T11:39:53.908Z,0.50
2022-10-04T11:42:37.730Z,0.40
2022-10-04T11:45:38.522Z,0.80
2022-10-04T11:48:27.943Z,0.50
2022-10-04T11:51:11.161Z,0.70
2022-10-04T11:54:09.694Z,0.60
2022-10-04T11:56:56.577Z,0.68
2022-10-04T11:59:29.508Z,0.63
2022-10-04T12:02:17.182Z,0.50
2022-10-04T12:05:14.999Z,0.60
2022-10-04T12:08:01.614Z,0.60
2022-10-04T12:10:38.887Z,0.40
2022-10-04T12:13:14.866Z,0.22
2022-10-04T12:15:58.370Z,0.43
2022-10-04T12:18:50.062Z,0.57
2022-10-04T12:21:31.544Z,0.38
2022-10-04T12:24:19.702Z,0.60
2022-10-04T12:27:24.486Z,0.50
2022-10-04T12:30:20.959Z,0.52
2022-10-04T12:32:47.737Z,0.40
2022-10-04T12:35:14.693Z,0.25
2022-10-04T12:38:11.952Z,0.50
2022-10-04T12:41:00.305Z,0.50
2022-10-04T12:43:38.580Z,0.40
2022-10-04T12:46:19.245Z,0.47
2022-10-04T12:49:04.808Z,0.40
2022-10-04T12:51:53.033Z,0.52
2022-10-04T12:54:34.945Z,0.75
2022-10-04T12:57:17.004Z,0.40
2022-10-04T13:00:17.808Z,0.50
2022-10-04T13:03:06.149Z,0.40
2022-10-04T13:05:54.676Z,0.30
2022-10-04T13:08:39.573Z,0.25
2022-10-04T13:11:42.308Z,0.60
2022-10-04T13:14:28.345Z,0.65
2022-10-04T13:17:27.124Z,0.32
2022-10-04T13:20:27.177Z,0.40
2022-10-04T13:23:30.863Z,0.70
2022-10-04T13:26:26.602Z,0.65
2022-10-04T13:29:20.449Z,0.55
2022-10-04T13:32:05.389Z,0.98
2022-10-04T13:34:46.725Z,0.77
2022-10-04T13:37:24.858Z,0.40
2022-10-04T13:39:54.423Z,0.60
2022-10-04T13:42:52.512Z,0.60
2022-10-04T13:45:34.954Z,0.50
2022-10-04T13:48:07.199Z,0.80
2022-10-04T13:51:03.614Z,1.05
2022-10-04T13:54:22.365Z,0.70
2022-10-04T13:57:12.359Z,1.10
2022-10-04T14:00:02.806Z,1.05
2022-10-04T14:02:49.885Z,1.60
2022-10-04T14:05:41.406Z,1.02
2022-10-04T14:08:55.466Z,0.70
2022-10-04T14:11:27.991Z,1.20
2022-10-04T14:14:33.326Z,1.30
2022-10-04T14:17:09.029Z,1.27
2022-10-04T14:20:24.133Z,1.35
2022-10-04T14:23:33.964Z,1.10
2022-10-04T14:26:31.198Z,1.15
2022-10-04T14:29:31.973Z,1.20
2022-10-04T14:32:35.730Z,1.35
2022-10-04T14:35:08.375Z,2.65
2022-10-04T14:37:41.015Z,2.42
2022-10-04T14:40:30.015Z,1.48
2022-10-04T14:43:24.600Z,2.25
2022-10-04T14:45:57.418Z,2.60
2022-10-04T14:48:36.151Z,1.33
2022-10-04T14:51:19.651Z,1.55
2022-10-04T14:53:52.790Z,1.70
2022-10-04T14:56:32.650Z,1.27
2022-10-04T14:59:02.778Z,1.60
2022-10-04T15:01:30.210Z,1.30
2022-10-04T15:04:14.049Z,1.38
2022-10-04T15:07:04.144Z,1.40
2022-10-04T15:09:49.837Z,1.25
2022-10-04T15:12:51.924Z,1.05
2022-10-04T15:15:18.988Z,1.20
2022-10-04T15:17:51.904Z,1.65
2022-10-04T15:20:27.403Z,1.45
2022-10-04T15:23:12.922Z,1.33
2022-10-04T15:25:43.974Z,1.42
2022-10-04T15:28:32.055Z,1.75
2022-10-04T15:31:06.433Z,1.75
2022-10-04T15:33:55.755Z,1.45
2022-10-04T15:36:28.703Z,2.17
2022-10-04T15:39:04.973Z,1.65
2022-10-04T15:41:59.440Z,1.58
2022-10-04T15:44:29.465Z,1.40
2022-10-04T15:47:21.989Z,1.75
2022-10-04T15:50:17.427Z,1.70
2022-10-04T15:52:54.430Z,1.52
2022-10-04T15:55:36.332Z,2.47
2022-10-04T15:58:24.303Z,2.13
2022-10-04T16:00:58.627Z,2.30
2022-10-04T16:03:43.859Z,2.13
2022-10-04T16:06:16.695Z,2.47
2022-10-04T16:08:49.626Z,3.15
2022-10-04T16:11:31.519Z,2.30
2022-10-04T16:14:36.848Z,3.00
2022-10-04T16:17:21.739Z,3.85
2022-10-04T16:20:20.103Z,2.78
2022-10-04T16:23:24.290Z,3.50
2022-10-04T16:25:56.829Z,3.88
2022-10-04T16:28:59.265Z,3.60
2022-10-04T16:32:05.182Z,4.30
2022-10-04T16:34:45.489Z,4.97
2022-10-04T16:37:24.369Z,4.45
2022-10-04T16:40:11.895Z,4.28
2022-10-04T16:42:54.732Z,4.07
2022-10-04T16:45:42.041Z,2.80
2022-10-04T16:48:23.949Z,2.90
2022-10-04T16:51:02.664Z,2.30
2022-10-04T16:53:32.751Z,2.05
2022-10-04T16:56:15.447Z,2.50
2022-10-04T16:58:53.264Z,2.05
2022-10-04T17:01:23.076Z,2.40
2022-10-04T17:04:01.947Z,3.25
2022-10-04T17:06:36.026Z,2.30
2022-10-04T17:09:29.393Z,2.03
2022-10-04T17:12:17.120Z,2.22
2022-10-04T17:14:55.675Z,2.45
2022-10-04T17:17:42.014Z,1.85
2022-10-04T17:20:24.241Z,2.58
2022-10-04T17:23:29.094Z,1.80
2022-10-04T17:25:57.275Z,2.47
2022-10-04T17:28:30.758Z,2.55
2022-10-04T17:31:05.716Z,2.47
2022-10-04T17:33:54.342Z,2.90
2022-10-04T17:36:38.707Z,2.88
2022-10-04T17:39:28.172Z,3.55
2022-10-04T17:42:35.408Z,2.90
2022-10-04T17:45:32.784Z,3.17
2022-10-04T17:48:27.376Z,4.40
2022-10-04T17:51:23.104Z,4.13
2022-10-04T17:54:32.809Z,3.75
2022-10-04T17:57:03.222Z,5.30
2022-10-04T17:59:39.467Z,4.10
2022-10-04T18:02:17.340Z,3.80
2022-10-04T18:05:15.601Z,2.80
2022-10-04T18:07:52.166Z,4.20
2022-10-04T18:10:46.651Z,3.42
2022-10-04T18:13:21.835Z,4.20
2022-10-04T18:18:25.027Z,5.38
2022-10-04T18:20:54.992Z,6.22
2022-10-04T18:23:28.399Z,7.15
2022-10-04T18:26:00.147Z,5.20
2022-10-04T18:28:27.760Z,3.85
2022-10-04T18:31:00.538Z,4.60
2022-10-04T18:33:40.071Z,3.60
2022-10-04T18:36:17.218Z,3.28
2022-10-04T18:38:47.386Z,4.20
2022-10-04T18:41:24.470Z,4.75
2022-10-04T18:43:59.399Z,4.60
2022-10-04T18:46:38.866Z,4.07
2022-10-04T18:49:17.144Z,2.90
2022-10-04T18:52:14.208Z,2.70
2022-10-04T18:54:49.658Z,2.85
2022-10-04T18:57:28.698Z,2.80
2022-10-04T19:00:28.126Z,2.40
2022-10-04T19:03:34.042Z,2.60
2022-10-04T19:06:10.242Z,2.15
2022-10-04T19:08:42.766Z,3.28
2022-10-04T19:11:32.095Z,3.90
2022-10-04T19:14:21.703Z,2.65
2022-10-04T19:17:14.066Z,2.72
2022-10-04T19:20:11.423Z,2.58
2022-10-04T19:23:09.288Z,2.30
2022-10-04T19:26:29.955Z,2.47
2022-10-04T19:28:50.852Z,2.55
2022-10-04T19:31:39.024Z,2.53
2022-10-04T19:34:20.851Z,2.85
2022-10-04T19:36:58.714Z,2.08
2022-10-04T19:39:46.621Z,2.00
2022-10-04T19:42:27.356Z,3.28
2022-10-04T19:45:12.626Z,2.95
2022-10-04T19:47:44.822Z,3.03
2022-10-04T19:50:25.041Z,2.80
2022-10-04T19:53:07.702Z,3.03
2022-10-04T19:55:57.337Z,2.70
2022-10-04T19:58:47.252Z,3.25
2022-10-04T20:01:21.374Z,2.95
2022-10-04T20:04:08.873Z,3.15
2022-10-04T20:06:38.443Z,2.35
2022-10-04T20:09:25.751Z,1.77
2022-10-04T20:11:53.603Z,2.17
2022-10-04T20:14:23.517Z,2.35
2022-10-04T20:17:02.502Z,2.05
2022-10-04T20:19:29.441Z,2.58
2022-10-04T20:22:18.692Z,2.15
2022-10-04T20:24:45.534Z,3.63
2022-10-04T20:27:28.663Z,3.42
2022-10-04T20:29:57.138Z,3.33
2022-10-04T20:32:26.773Z,3.67
2022-10-04T20:34:55.507Z,3.33
2022-10-04T20:37:42.633Z,2.95
2022-10-04T20:40:11.117Z,3.10
2022-10-04T20:42:39.166Z,3.00
2022-10-04T20:45:08.874Z,3.10
2022-10-04T20:47:49.898Z,2.92
2022-10-04T20:50:21.153Z,3.38
2022-10-04T20:52:53.617Z,2.45
2022-10-04T20:55:25.336Z,2.88
2022-10-04T20:57:52.397Z,3.13
2022-10-04T21:00:22.038Z,3.13
2022-10-04T21:02:49.548Z,2.75
2022-10-04T21:05:25.342Z,2.85
2022-10-04T21:08:15.642Z,3.35
2022-10-04T21:11:08.694Z,3.10
2022-10-04T21:14:02.080Z,3.42
2022-10-04T21:16:46.095Z,7.70
2022-10-04T21:19:43.193Z,8.45
2022-10-04T21:22:31.102Z,9.68
2022-10-04T21:25:04.204Z,8.50
2022-10-04T21:27:36.693Z,6.95
2022-10-04T21:30:15.887Z,4.78
2022-10-04T21:32:43.479Z,3.72
2022-10-04T21:35:11.728Z,3.03
2022-10-04T21:37:38.764Z,3.88
2022-10-04T21:40:06.933Z,2.58
2022-10-04T21:42:33.980Z,2.38
2022-10-04T21:45:01.041Z,2.80
2022-10-04T21:47:27.997Z,2.70
2022-10-04T21:49:55.274Z,2.80
2022-10-04T21:52:22.261Z,2.60
2022-10-04T21:54:49.187Z,2.88
2022-10-04T21:57:16.225Z,2.78
2022-10-04T21:59:43.095Z,2.45
2022-10-04T22:02:10.091Z,2.92
2022-10-04T22:04:38.360Z,2.58
2022-10-04T22:07:05.409Z,2.28
2022-10-04T22:09:34.013Z,2.50
2022-10-04T22:12:00.979Z,3.20
2022-10-04T22:14:27.857Z,3.25
2022-10-04T22:16:54.791Z,3.45
2022-10-04T22:19:21.796Z,3.17
2022-10-04T22:21:48.714Z,3.13
2022-10-04T22:24:18.678Z,3.95
2022-10-04T22:26:46.291Z,4.43
2022-10-04T22:29:16.359Z,5.05
2022-10-04T22:31:49.648Z,5.15
2022-10-04T22:34:19.376Z,6.10
2022-10-04T22:36:48.414Z,5.28
2022-10-04T22:39:18.175Z,5.78
2022-10-04T22:41:56.127Z,4.90
2022-10-04T22:44:27.766Z,7.80
2022-10-04T22:46:57.680Z,11.48
2022-10-04T22:49:31.805Z,11.98
2022-10-04T22:52:01.918Z,15.68
2022-10-04T22:54:32.527Z,17.33
2022-10-04T22:57:00.152Z,19.70
2022-10-04T22:59:40.231Z,20.00
2022-10-04T23:02:13.592Z,19.63
2022-10-04T23:04:44.089Z,16.63
2022-10-04T23:07:11.090Z,19.30
2022-10-04T23:09:37.955Z,20.27
2022-10-04T23:12:07.557Z,27.52
2022-10-04T23:14:39.443Z,22.35
2022-10-04T23:17:16.771Z,17.52
2022-10-04T23:19:43.978Z,14.10
2022-10-04T23:22:17.223Z,13.02
2022-10-04T23:24:44.507Z,12.40
2022-10-04T23:27:16.307Z,11.68
2022-10-04T23:29:45.640Z,11.43
2022-10-04T23:32:15.802Z,10.00
2022-10-04T23:34:45.959Z,11.10
2022-10-04T23:37:20.377Z,19.50
2022-10-04T23:39:47.337Z,19.90
2022-10-04T23:42:34.406Z,34.53
2022-10-04T23:45:02.214Z,39.55
2022-10-04T23:47:37.121Z,41.40
2022-10-04T23:50:18.553Z,48.05
2022-10-04T23:52:45.717Z,49.28
2022-10-04T23:55:22.348Z,43.50
2022-10-04T23:57:49.956Z,44.28
